sensor_id;sensor_type;location;lat;lon;timestamp;P1;durP1;ratioP1;P2;durP2;ratioP2
8419;SDS011;4247;48.550;8.822;2022-11-13T00:01:08;53.80;;;6.30;;
8419;SDS011;4247;48.550;8.822;2022-11-13T00:03:38;47.23;;;9.63;;
8419;SDS011;4247;48.550;8.822;2022-11-13T00:06:05;73.37;;;9.10;;
8419;SDS011;4247;48.550;8.822;2022-11-13T00:08:32;80.27;;;7.73;;
8419;SDS011;4247;48.550;8.822;2022-11-13T00:11:00;22.73;;;7.10;;
8419;SDS011;4247;48.550;8.822;2022-11-13T00:13:27;76.87;;;9.73;;
8419;SDS011;4247;48.550;8.822;2022-11-13T00:15:55;41.20;;;8.83;;
8419;SDS011;4247;48.550;8.822;2022-11-13T00:18:22;54.73;;;8.63;;
8419;SDS011;4247;48.550;8.822;2022-11-13T00:20:51;65.23;;;9.47;;
8419;SDS011;4247;48.550;8.822;2022-11-13T00:23:17;58.00;;;10.53;;
8419;SDS011;4247;48.550;8.822;2022-11-13T00:25:44;65.63;;;9.70;;
8419;SDS011;4247;48.550;8.822;2022-11-13T00:28:11;66.73;;;8.93;;
8419;SDS011;4247;48.550;8.822;2022-11-13T00:30:38;9.23;;;5.23;;
8419;SDS011;4247;48.550;8.822;2022-11-13T00:33:04;27.37;;;6.60;;
8419;SDS011;4247;48.550;8.822;2022-11-13T00:35:31;36.07;;;6.77;;
8419;SDS011;4247;48.550;8.822;2022-11-13T00:38:00;24.47;;;6.67;;
8419;SDS011;4247;48.550;8.822;2022-11-13T00:40:27;55.23;;;6.70;;
8419;SDS011;4247;48.550;8.822;2022-11-13T00:42:54;42.80;;;4.30;;
8419;SDS011;4247;48.550;8.822;2022-11-13T00:45:20;59.67;;;6.23;;
8419;SDS011;4247;48.550;8.822;2022-11-13T00:47:47;39.00;;;6.47;;
8419;SDS011;4247;48.550;8.822;2022-11-13T00:50:14;70.57;;;6.93;;
8419;SDS011;4247;48.550;8.822;2022-11-13T00:52:41;38.70;;;5.63;;
8419;SDS011;4247;48.550;8.822;2022-11-13T00:55:09;182.23;;;14.03;;
8419;SDS011;4247;48.550;8.822;2022-11-13T00:57:36;77.13;;;6.63;;
8419;SDS011;4247;48.550;8.822;2022-11-13T01:00:03;65.80;;;6.23;;
8419;SDS011;4247;48.550;8.822;2022-11-13T01:02:31;5.17;;;3.67;;
8419;SDS011;4247;48.550;8.822;2022-11-13T01:04:58;13.20;;;3.73;;
8419;SDS011;4247;48.550;8.822;2022-11-13T01:07:24;4.60;;;3.57;;
8419;SDS011;4247;48.550;8.822;2022-11-13T01:09:51;5.70;;;4.33;;
8419;SDS011;4247;48.550;8.822;2022-11-13T01:12:20;6.70;;;3.83;;
8419;SDS011;4247;48.550;8.822;2022-11-13T01:14:47;5.03;;;3.40;;
8419;SDS011;4247;48.550;8.822;2022-11-13T01:17:13;5.70;;;3.03;;
8419;SDS011;4247;48.550;8.822;2022-11-13T01:19:40;3.83;;;3.40;;
8419;SDS011;4247;48.550;8.822;2022-11-13T01:22:07;3.40;;;2.47;;
8419;SDS011;4247;48.550;8.822;2022-11-13T01:24:34;14.30;;;4.00;;
8419;SDS011;4247;48.550;8.822;2022-11-13T01:27:01;9.43;;;3.93;;
8419;SDS011;4247;48.550;8.822;2022-11-13T01:29:29;11.13;;;4.20;;
8419;SDS011;4247;48.550;8.822;2022-11-13T01:31:56;24.30;;;4.77;;
8419;SDS011;4247;48.550;8.822;2022-11-13T01:34:23;13.27;;;3.67;;
8419;SDS011;4247;48.550;8.822;2022-11-13T01:36:50;6.80;;;3.73;;
8419;SDS011;4247;48.550;8.822;2022-11-13T01:39:17;8.80;;;4.57;;
8419;SDS011;4247;48.550;8.822;2022-11-13T01:41:44;12.67;;;4.10;;
8419;SDS011;4247;48.550;8.822;2022-11-13T01:44:11;18.73;;;4.23;;
8419;SDS011;4247;48.550;8.822;2022-11-13T01:46:41;6.33;;;4.03;;
8419;SDS011;4247;48.550;8.822;2022-11-13T01:49:16;10.83;;;3.60;;
8419;SDS011;4247;48.550;8.822;2022-11-13T01:51:51;5.43;;;3.53;;
8419;SDS011;4247;48.550;8.822;2022-11-13T01:54:21;9.13;;;3.57;;
8419;SDS011;4247;48.550;8.822;2022-11-13T01:56:51;8.27;;;3.67;;
8419;SDS011;4247;48.550;8.822;2022-11-13T01:59:20;33.87;;;4.90;;
8419;SDS011;4247;48.550;8.822;2022-11-13T02:01:51;17.47;;;3.60;;
8419;SDS011;4247;48.550;8.822;2022-11-13T02:04:19;12.60;;;4.40;;
8419;SDS011;4247;48.550;8.822;2022-11-13T02:06:47;37.57;;;6.00;;
8419;SDS011;4247;48.550;8.822;2022-11-13T02:09:16;50.07;;;8.03;;
8419;SDS011;4247;48.550;8.822;2022-11-13T02:11:46;45.83;;;6.40;;
8419;SDS011;4247;48.550;8.822;2022-11-13T02:14:13;11.67;;;4.93;;
8419;SDS011;4247;48.550;8.822;2022-11-13T02:16:43;44.43;;;7.57;;
8419;SDS011;4247;48.550;8.822;2022-11-13T02:19:16;47.20;;;5.80;;
8419;SDS011;4247;48.550;8.822;2022-11-13T02:21:49;9.77;;;5.77;;
8419;SDS011;4247;48.550;8.822;2022-11-13T02:24:24;14.33;;;5.03;;
8419;SDS011;4247;48.550;8.822;2022-11-13T02:26:55;10.90;;;5.13;;
8419;SDS011;4247;48.550;8.822;2022-11-13T02:29:26;6.13;;;4.10;;
8419;SDS011;4247;48.550;8.822;2022-11-13T02:31:52;9.10;;;4.73;;
8419;SDS011;4247;48.550;8.822;2022-11-13T02:34:19;6.60;;;4.00;;
8419;SDS011;4247;48.550;8.822;2022-11-13T02:36:46;10.60;;;5.30;;
8419;SDS011;4247;48.550;8.822;2022-11-13T02:39:14;7.87;;;4.57;;
8419;SDS011;4247;48.550;8.822;2022-11-13T02:41:42;9.50;;;4.90;;
8419;SDS011;4247;48.550;8.822;2022-11-13T02:44:09;13.97;;;6.17;;
8419;SDS011;4247;48.550;8.822;2022-11-13T02:46:36;24.57;;;5.93;;
8419;SDS011;4247;48.550;8.822;2022-11-13T02:49:03;20.63;;;5.57;;
8419;SDS011;4247;48.550;8.822;2022-11-13T02:51:30;5.70;;;4.30;;
8419;SDS011;4247;48.550;8.822;2022-11-13T02:53:57;14.87;;;4.47;;
8419;SDS011;4247;48.550;8.822;2022-11-13T02:56:24;8.87;;;3.57;;
8419;SDS011;4247;48.550;8.822;2022-11-13T02:58:52;10.63;;;3.53;;
8419;SDS011;4247;48.550;8.822;2022-11-13T03:01:19;16.80;;;3.97;;
8419;SDS011;4247;48.550;8.822;2022-11-13T03:03:46;25.63;;;5.27;;
8419;SDS011;4247;48.550;8.822;2022-11-13T03:06:12;19.07;;;3.17;;
8419;SDS011;4247;48.550;8.822;2022-11-13T03:08:39;50.60;;;5.87;;
8419;SDS011;4247;48.550;8.822;2022-11-13T03:11:07;26.40;;;3.17;;
8419;SDS011;4247;48.550;8.822;2022-11-13T03:13:34;18.73;;;4.07;;
8419;SDS011;4247;48.550;8.822;2022-11-13T03:16:10;4.90;;;2.13;;
8419;SDS011;4247;48.550;8.822;2022-11-13T03:18:38;14.63;;;3.10;;
8419;SDS011;4247;48.550;8.822;2022-11-13T03:21:06;6.63;;;2.50;;
8419;SDS011;4247;48.550;8.822;2022-11-13T03:23:34;4.50;;;2.30;;
8419;SDS011;4247;48.550;8.822;2022-11-13T03:26:02;5.67;;;3.53;;
8419;SDS011;4247;48.550;8.822;2022-11-13T03:28:30;3.13;;;2.83;;
8419;SDS011;4247;48.550;8.822;2022-11-13T03:30:57;4.77;;;2.93;;
8419;SDS011;4247;48.550;8.822;2022-11-13T03:33:25;4.07;;;3.30;;
8419;SDS011;4247;48.550;8.822;2022-11-13T03:35:52;4.47;;;3.10;;
8419;SDS011;4247;48.550;8.822;2022-11-13T03:38:19;2.50;;;2.30;;
8419;SDS011;4247;48.550;8.822;2022-11-13T03:40:46;3.30;;;2.03;;
8419;SDS011;4247;48.550;8.822;2022-11-13T03:43:14;3.47;;;2.70;;
8419;SDS011;4247;48.550;8.822;2022-11-13T03:45:43;2.80;;;1.93;;
8419;SDS011;4247;48.550;8.822;2022-11-13T03:48:10;1.90;;;1.70;;
8419;SDS011;4247;48.550;8.822;2022-11-13T03:50:39;2.23;;;2.00;;
8419;SDS011;4247;48.550;8.822;2022-11-13T03:53:07;3.43;;;2.53;;
8419;SDS011;4247;48.550;8.822;2022-11-13T03:55:34;2.73;;;2.40;;
8419;SDS011;4247;48.550;8.822;2022-11-13T03:58:01;2.53;;;2.07;;
8419;SDS011;4247;48.550;8.822;2022-11-13T04:00:28;3.10;;;2.47;;
8419;SDS011;4247;48.550;8.822;2022-11-13T04:02:55;2.30;;;2.10;;
8419;SDS011;4247;48.550;8.822;2022-11-13T04:05:22;2.20;;;1.90;;
8419;SDS011;4247;48.550;8.822;2022-11-13T04:07:50;2.57;;;2.37;;
8419;SDS011;4247;48.550;8.822;2022-11-13T04:10:17;1.80;;;1.70;;
8419;SDS011;4247;48.550;8.822;2022-11-13T04:12:45;2.80;;;2.23;;
8419;SDS011;4247;48.550;8.822;2022-11-13T04:15:12;2.23;;;1.47;;
8419;SDS011;4247;48.550;8.822;2022-11-13T04:17:39;3.10;;;2.30;;
8419;SDS011;4247;48.550;8.822;2022-11-13T04:20:07;3.23;;;2.93;;
8419;SDS011;4247;48.550;8.822;2022-11-13T04:22:34;2.23;;;2.03;;
8419;SDS011;4247;48.550;8.822;2022-11-13T04:25:03;4.03;;;2.57;;
8419;SDS011;4247;48.550;8.822;2022-11-13T04:27:30;3.10;;;2.00;;
8419;SDS011;4247;48.550;8.822;2022-11-13T04:29:57;2.53;;;2.33;;
8419;SDS011;4247;48.550;8.822;2022-11-13T04:32:24;2.93;;;2.17;;
8419;SDS011;4247;48.550;8.822;2022-11-13T04:34:51;2.37;;;2.10;;
8419;SDS011;4247;48.550;8.822;2022-11-13T04:37:18;2.50;;;2.30;;
8419;SDS011;4247;48.550;8.822;2022-11-13T04:39:45;4.50;;;2.73;;
8419;SDS011;4247;48.550;8.822;2022-11-13T04:42:13;3.30;;;3.00;;
8419;SDS011;4247;48.550;8.822;2022-11-13T04:44:58;3.50;;;2.80;;
8419;SDS011;4247;48.550;8.822;2022-11-13T04:47:25;2.97;;;2.70;;
8419;SDS011;4247;48.550;8.822;2022-11-13T04:49:51;3.37;;;3.07;;
8419;SDS011;4247;48.550;8.822;2022-11-13T04:52:18;3.37;;;3.07;;
8419;SDS011;4247;48.550;8.822;2022-11-13T04:54:45;2.47;;;2.27;;
8419;SDS011;4247;48.550;8.822;2022-11-13T04:57:13;4.70;;;3.40;;
8419;SDS011;4247;48.550;8.822;2022-11-13T04:59:40;5.93;;;3.47;;
8419;SDS011;4247;48.550;8.822;2022-11-13T05:02:07;3.77;;;2.60;;
8419;SDS011;4247;48.550;8.822;2022-11-13T05:04:34;2.97;;;2.50;;
8419;SDS011;4247;48.550;8.822;2022-11-13T05:07:00;2.33;;;1.77;;
8419;SDS011;4247;48.550;8.822;2022-11-13T05:09:27;5.13;;;2.90;;
8419;SDS011;4247;48.550;8.822;2022-11-13T05:11:54;3.73;;;2.77;;
8419;SDS011;4247;48.550;8.822;2022-11-13T05:14:22;3.17;;;2.87;;
8419;SDS011;4247;48.550;8.822;2022-11-13T05:16:49;3.90;;;2.87;;
8419;SDS011;4247;48.550;8.822;2022-11-13T05:19:16;3.20;;;2.53;;
8419;SDS011;4247;48.550;8.822;2022-11-13T05:21:43;2.40;;;2.20;;
8419;SDS011;4247;48.550;8.822;2022-11-13T05:24:10;3.20;;;2.47;;
8419;SDS011;4247;48.550;8.822;2022-11-13T05:26:38;2.87;;;2.40;;
8419;SDS011;4247;48.550;8.822;2022-11-13T05:29:05;3.47;;;2.53;;
8419;SDS011;4247;48.550;8.822;2022-11-13T05:31:34;3.97;;;2.63;;
8419;SDS011;4247;48.550;8.822;2022-11-13T05:34:01;2.93;;;2.70;;
8419;SDS011;4247;48.550;8.822;2022-11-13T05:36:29;2.60;;;1.80;;
8419;SDS011;4247;48.550;8.822;2022-11-13T05:38:56;2.20;;;2.10;;
8419;SDS011;4247;48.550;8.822;2022-11-13T05:41:23;4.40;;;2.77;;
8419;SDS011;4247;48.550;8.822;2022-11-13T05:43:51;2.90;;;2.23;;
8419;SDS011;4247;48.550;8.822;2022-11-13T05:46:18;3.97;;;2.93;;
8419;SDS011;4247;48.550;8.822;2022-11-13T05:48:50;3.17;;;2.87;;
8419;SDS011;4247;48.550;8.822;2022-11-13T05:51:19;3.73;;;2.97;;
8419;SDS011;4247;48.550;8.822;2022-11-13T05:53:47;3.30;;;2.73;;
8419;SDS011;4247;48.550;8.822;2022-11-13T05:56:15;2.93;;;2.50;;
8419;SDS011;4247;48.550;8.822;2022-11-13T05:58:44;2.80;;;2.60;;
8419;SDS011;4247;48.550;8.822;2022-11-13T06:01:13;2.97;;;2.77;;
8419;SDS011;4247;48.550;8.822;2022-11-13T06:03:41;2.97;;;2.73;;
8419;SDS011;4247;48.550;8.822;2022-11-13T06:06:11;3.70;;;2.50;;
8419;SDS011;4247;48.550;8.822;2022-11-13T06:08:39;3.17;;;2.83;;
8419;SDS011;4247;48.550;8.822;2022-11-13T06:11:07;4.40;;;3.13;;
8419;SDS011;4247;48.550;8.822;2022-11-13T06:13:35;3.30;;;3.00;;
8419;SDS011;4247;48.550;8.822;2022-11-13T06:16:03;2.90;;;2.70;;
8419;SDS011;4247;48.550;8.822;2022-11-13T06:18:31;3.10;;;2.83;;
8419;SDS011;4247;48.550;8.822;2022-11-13T06:20:59;7.00;;;2.97;;
8419;SDS011;4247;48.550;8.822;2022-11-13T06:23:28;5.17;;;4.60;;
8419;SDS011;4247;48.550;8.822;2022-11-13T06:26:00;7.10;;;3.60;;
8419;SDS011;4247;48.550;8.822;2022-11-13T06:28:27;5.17;;;3.10;;
8419;SDS011;4247;48.550;8.822;2022-11-13T06:30:54;3.03;;;2.83;;
8419;SDS011;4247;48.550;8.822;2022-11-13T06:33:21;3.30;;;3.00;;
8419;SDS011;4247;48.550;8.822;2022-11-13T06:35:48;3.40;;;2.40;;
8419;SDS011;4247;48.550;8.822;2022-11-13T06:38:15;2.97;;;2.70;;
8419;SDS011;4247;48.550;8.822;2022-11-13T06:40:43;2.20;;;2.00;;
8419;SDS011;4247;48.550;8.822;2022-11-13T06:43:10;3.00;;;2.70;;
8419;SDS011;4247;48.550;8.822;2022-11-13T06:45:37;3.87;;;2.60;;
8419;SDS011;4247;48.550;8.822;2022-11-13T06:48:04;2.10;;;2.00;;
8419;SDS011;4247;48.550;8.822;2022-11-13T06:50:31;2.80;;;2.53;;
8419;SDS011;4247;48.550;8.822;2022-11-13T06:52:58;3.57;;;2.13;;
8419;SDS011;4247;48.550;8.822;2022-11-13T06:55:25;2.50;;;2.20;;
8419;SDS011;4247;48.550;8.822;2022-11-13T06:57:54;4.67;;;2.93;;
8419;SDS011;4247;48.550;8.822;2022-11-13T07:00:21;5.37;;;1.80;;
8419;SDS011;4247;48.550;8.822;2022-11-13T07:02:48;3.40;;;3.10;;
8419;SDS011;4247;48.550;8.822;2022-11-13T07:05:15;85.73;;;5.23;;
8419;SDS011;4247;48.550;8.822;2022-11-13T07:07:42;17.23;;;2.83;;
8419;SDS011;4247;48.550;8.822;2022-11-13T07:10:09;39.17;;;4.87;;
8419;SDS011;4247;48.550;8.822;2022-11-13T07:12:36;6.53;;;2.73;;
8419;SDS011;4247;48.550;8.822;2022-11-13T07:15:04;10.13;;;4.10;;
8419;SDS011;4247;48.550;8.822;2022-11-13T07:17:32;5.37;;;4.30;;
8419;SDS011;4247;48.550;8.822;2022-11-13T07:19:59;5.93;;;3.07;;
8419;SDS011;4247;48.550;8.822;2022-11-13T07:22:26;3.90;;;3.37;;
8419;SDS011;4247;48.550;8.822;2022-11-13T07:24:54;6.83;;;3.47;;
8419;SDS011;4247;48.550;8.822;2022-11-13T07:27:22;4.27;;;3.77;;
8419;SDS011;4247;48.550;8.822;2022-11-13T07:29:49;4.50;;;3.10;;
8419;SDS011;4247;48.550;8.822;2022-11-13T07:32:17;6.27;;;4.00;;
8419;SDS011;4247;48.550;8.822;2022-11-13T07:34:44;6.30;;;5.10;;
8419;SDS011;4247;48.550;8.822;2022-11-13T07:37:11;7.57;;;6.40;;
8419;SDS011;4247;48.550;8.822;2022-11-13T07:39:38;4.70;;;3.73;;
8419;SDS011;4247;48.550;8.822;2022-11-13T07:42:05;3.27;;;2.97;;
8419;SDS011;4247;48.550;8.822;2022-11-13T07:44:32;4.83;;;3.03;;
8419;SDS011;4247;48.550;8.822;2022-11-13T07:46:59;5.07;;;4.00;;
8419;SDS011;4247;48.550;8.822;2022-11-13T07:49:28;5.10;;;3.90;;
8419;SDS011;4247;48.550;8.822;2022-11-13T07:51:54;4.53;;;3.93;;
8419;SDS011;4247;48.550;8.822;2022-11-13T07:54:21;6.70;;;4.90;;
8419;SDS011;4247;48.550;8.822;2022-11-13T07:56:48;6.90;;;6.10;;
8419;SDS011;4247;48.550;8.822;2022-11-13T07:59:15;8.00;;;6.20;;
8419;SDS011;4247;48.550;8.822;2022-11-13T08:01:42;6.97;;;6.30;;
8419;SDS011;4247;48.550;8.822;2022-11-13T08:04:08;7.03;;;6.40;;
8419;SDS011;4247;48.550;8.822;2022-11-13T08:06:37;7.93;;;5.67;;
8419;SDS011;4247;48.550;8.822;2022-11-13T08:09:04;5.20;;;4.70;;
8419;SDS011;4247;48.550;8.822;2022-11-13T08:11:31;4.83;;;3.97;;
8419;SDS011;4247;48.550;8.822;2022-11-13T08:13:57;5.07;;;4.43;;
8419;SDS011;4247;48.550;8.822;2022-11-13T08:16:24;4.80;;;4.40;;
8419;SDS011;4247;48.550;8.822;2022-11-13T08:18:52;4.23;;;3.80;;
8419;SDS011;4247;48.550;8.822;2022-11-13T08:21:18;4.80;;;4.03;;
8419;SDS011;4247;48.550;8.822;2022-11-13T08:23:47;4.80;;;4.40;;
8419;SDS011;4247;48.550;8.822;2022-11-13T08:26:14;5.33;;;4.90;;
8419;SDS011;4247;48.550;8.822;2022-11-13T08:28:42;13.40;;;8.33;;
8419;SDS011;4247;48.550;8.822;2022-11-13T08:31:10;11.60;;;7.00;;
8419;SDS011;4247;48.550;8.822;2022-11-13T08:33:38;9.63;;;6.70;;
8419;SDS011;4247;48.550;8.822;2022-11-13T08:36:05;8.33;;;7.07;;
8419;SDS011;4247;48.550;8.822;2022-11-13T08:38:33;9.67;;;6.77;;
8419;SDS011;4247;48.550;8.822;2022-11-13T08:41:03;8.23;;;5.83;;
8419;SDS011;4247;48.550;8.822;2022-11-13T08:43:32;10.30;;;7.13;;
8419;SDS011;4247;48.550;8.822;2022-11-13T08:45:59;10.57;;;7.37;;
8419;SDS011;4247;48.550;8.822;2022-11-13T08:48:26;14.23;;;8.87;;
8419;SDS011;4247;48.550;8.822;2022-11-13T08:50:53;7.23;;;5.93;;
8419;SDS011;4247;48.550;8.822;2022-11-13T08:53:21;6.30;;;4.87;;
8419;SDS011;4247;48.550;8.822;2022-11-13T08:55:49;6.90;;;5.67;;
8419;SDS011;4247;48.550;8.822;2022-11-13T08:58:17;9.27;;;6.73;;
8419;SDS011;4247;48.550;8.822;2022-11-13T09:00:44;12.67;;;6.97;;
8419;SDS011;4247;48.550;8.822;2022-11-13T09:03:11;4.83;;;4.37;;
8419;SDS011;4247;48.550;8.822;2022-11-13T09:05:38;6.13;;;4.77;;
8419;SDS011;4247;48.550;8.822;2022-11-13T09:08:05;4.50;;;3.93;;
8419;SDS011;4247;48.550;8.822;2022-11-13T09:10:32;4.77;;;4.27;;
8419;SDS011;4247;48.550;8.822;2022-11-13T09:12:59;4.07;;;3.77;;
8419;SDS011;4247;48.550;8.822;2022-11-13T09:15:31;4.90;;;4.10;;
8419;SDS011;4247;48.550;8.822;2022-11-13T09:17:59;4.47;;;3.90;;
8419;SDS011;4247;48.550;8.822;2022-11-13T09:20:27;4.43;;;4.00;;
8419;SDS011;4247;48.550;8.822;2022-11-13T09:22:55;5.87;;;4.40;;
8419;SDS011;4247;48.550;8.822;2022-11-13T09:25:23;8.47;;;4.33;;
8419;SDS011;4247;48.550;8.822;2022-11-13T09:27:51;6.43;;;4.47;;
8419;SDS011;4247;48.550;8.822;2022-11-13T09:30:20;6.73;;;4.93;;
8419;SDS011;4247;48.550;8.822;2022-11-13T09:32:51;8.30;;;5.23;;
8419;SDS011;4247;48.550;8.822;2022-11-13T09:35:18;6.30;;;4.47;;
8419;SDS011;4247;48.550;8.822;2022-11-13T09:37:57;5.13;;;4.63;;
8419;SDS011;4247;48.550;8.822;2022-11-13T09:40:26;4.63;;;4.23;;
8419;SDS011;4247;48.550;8.822;2022-11-13T09:42:57;5.53;;;4.13;;
8419;SDS011;4247;48.550;8.822;2022-11-13T09:45:26;5.27;;;4.77;;
8419;SDS011;4247;48.550;8.822;2022-11-13T09:47:57;6.13;;;5.07;;
8419;SDS011;4247;48.550;8.822;2022-11-13T09:50:43;4.60;;;4.20;;
8419;SDS011;4247;48.550;8.822;2022-11-13T09:53:11;5.20;;;3.47;;
8419;SDS011;4247;48.550;8.822;2022-11-13T09:55:40;4.43;;;3.50;;
8419;SDS011;4247;48.550;8.822;2022-11-13T09:58:16;3.77;;;3.47;;
8419;SDS011;4247;48.550;8.822;2022-11-13T10:00:48;4.63;;;4.23;;
8419;SDS011;4247;48.550;8.822;2022-11-13T10:16:35;3.50;;;3.20;;
8419;SDS011;4247;48.550;8.822;2022-11-13T10:19:08;4.00;;;3.60;;
8419;SDS011;4247;48.550;8.822;2022-11-13T10:21:45;5.30;;;4.80;;
8419;SDS011;4247;48.550;8.822;2022-11-13T10:24:16;6.67;;;4.47;;
8419;SDS011;4247;48.550;8.822;2022-11-13T10:26:52;7.10;;;3.80;;
8419;SDS011;4247;48.550;8.822;2022-11-13T10:29:21;5.10;;;4.00;;
8419;SDS011;4247;48.550;8.822;2022-11-13T10:31:50;3.87;;;3.57;;
8419;SDS011;4247;48.550;8.822;2022-11-13T10:34:18;3.80;;;3.27;;
8419;SDS011;4247;48.550;8.822;2022-11-13T10:36:51;3.93;;;3.53;;
8419;SDS011;4247;48.550;8.822;2022-11-13T10:39:35;4.73;;;4.17;;
8419;SDS011;4247;48.550;8.822;2022-11-13T10:42:17;5.13;;;3.40;;
8419;SDS011;4247;48.550;8.822;2022-11-13T10:44:51;4.63;;;3.60;;
8419;SDS011;4247;48.550;8.822;2022-11-13T10:47:22;4.47;;;4.07;;
8419;SDS011;4247;48.550;8.822;2022-11-13T10:49:50;4.23;;;3.83;;
8419;SDS011;4247;48.550;8.822;2022-11-13T10:52:19;5.03;;;3.90;;
8419;SDS011;4247;48.550;8.822;2022-11-13T10:54:47;4.60;;;3.87;;
8419;SDS011;4247;48.550;8.822;2022-11-13T10:57:24;5.07;;;3.50;;
8419;SDS011;4247;48.550;8.822;2022-11-13T10:59:54;5.03;;;3.53;;
8419;SDS011;4247;48.550;8.822;2022-11-13T11:02:23;5.60;;;4.03;;
8419;SDS011;4247;48.550;8.822;2022-11-13T11:05:00;8.03;;;3.63;;
8419;SDS011;4247;48.550;8.822;2022-11-13T11:07:27;4.13;;;3.73;;
8419;SDS011;4247;48.550;8.822;2022-11-13T11:09:54;4.43;;;3.53;;
8419;SDS011;4247;48.550;8.822;2022-11-13T11:12:22;4.13;;;3.20;;
8419;SDS011;4247;48.550;8.822;2022-11-13T11:14:57;3.40;;;3.07;;
8419;SDS011;4247;48.550;8.822;2022-11-13T11:17:35;4.83;;;3.53;;
8419;SDS011;4247;48.550;8.822;2022-11-13T11:20:08;4.63;;;4.13;;
8419;SDS011;4247;48.550;8.822;2022-11-13T11:22:45;3.57;;;3.03;;
8419;SDS011;4247;48.550;8.822;2022-11-13T11:25:16;6.50;;;3.30;;
8419;SDS011;4247;48.550;8.822;2022-11-13T11:27:51;5.47;;;3.50;;
8419;SDS011;4247;48.550;8.822;2022-11-13T11:30:24;3.60;;;3.30;;
8419;SDS011;4247;48.550;8.822;2022-11-13T11:32:59;4.00;;;3.30;;
8419;SDS011;4247;48.550;8.822;2022-11-13T11:35:36;3.90;;;3.60;;
8419;SDS011;4247;48.550;8.822;2022-11-13T11:38:08;3.93;;;3.27;;
8419;SDS011;4247;48.550;8.822;2022-11-13T11:40:41;3.97;;;3.27;;
8419;SDS011;4247;48.550;8.822;2022-11-13T11:43:11;3.93;;;3.53;;
8419;SDS011;4247;48.550;8.822;2022-11-13T11:45:45;4.23;;;3.60;;
8419;SDS011;4247;48.550;8.822;2022-11-13T11:48:14;3.93;;;3.17;;
8419;SDS011;4247;48.550;8.822;2022-11-13T11:50:44;3.47;;;3.17;;
8419;SDS011;4247;48.550;8.822;2022-11-13T11:53:18;4.37;;;3.13;;
8419;SDS011;4247;48.550;8.822;2022-11-13T11:58:50;3.30;;;3.00;;
8419;SDS011;4247;48.550;8.822;2022-11-13T12:01:45;3.97;;;3.50;;
8419;SDS011;4247;48.550;8.822;2022-11-13T12:04:28;4.07;;;3.30;;
8419;SDS011;4247;48.550;8.822;2022-11-13T12:07:14;4.27;;;3.10;;
8419;SDS011;4247;48.550;8.822;2022-11-13T12:09:52;2.80;;;2.60;;
8419;SDS011;4247;48.550;8.822;2022-11-13T12:12:32;3.07;;;2.83;;
8419;SDS011;4247;48.550;8.822;2022-11-13T12:15:11;3.20;;;2.90;;
8419;SDS011;4247;48.550;8.822;2022-11-13T12:17:47;3.33;;;3.03;;
8419;SDS011;4247;48.550;8.822;2022-11-13T12:20:34;3.40;;;3.10;;
8419;SDS011;4247;48.550;8.822;2022-11-13T12:23:12;4.80;;;3.07;;
8419;SDS011;4247;48.550;8.822;2022-11-13T12:25:53;4.17;;;3.33;;
8419;SDS011;4247;48.550;8.822;2022-11-13T12:28:27;4.27;;;2.83;;
8419;SDS011;4247;48.550;8.822;2022-11-13T12:31:01;3.53;;;3.07;;
8419;SDS011;4247;48.550;8.822;2022-11-13T12:33:36;3.43;;;3.17;;
8419;SDS011;4247;48.550;8.822;2022-11-13T12:36:12;3.53;;;2.70;;
8419;SDS011;4247;48.550;8.822;2022-11-13T12:38:41;3.70;;;3.20;;
8419;SDS011;4247;48.550;8.822;2022-11-13T12:41:15;3.23;;;2.83;;
8419;SDS011;4247;48.550;8.822;2022-11-13T12:43:57;4.30;;;3.10;;
8419;SDS011;4247;48.550;8.822;2022-11-13T12:46:33;3.07;;;2.70;;
8419;SDS011;4247;48.550;8.822;2022-11-13T12:49:02;4.80;;;2.60;;
8419;SDS011;4247;48.550;8.822;2022-11-13T12:51:51;4.13;;;3.20;;
8419;SDS011;4247;48.550;8.822;2022-11-13T12:54:23;2.50;;;2.20;;
8419;SDS011;4247;48.550;8.822;2022-11-13T12:57:15;3.97;;;2.27;;
8419;SDS011;4247;48.550;8.822;2022-11-13T12:59:46;4.30;;;2.70;;
8419;SDS011;4247;48.550;8.822;2022-11-13T13:05:28;3.30;;;2.77;;
8419;SDS011;4247;48.550;8.822;2022-11-13T13:08:09;3.07;;;2.77;;
8419;SDS011;4247;48.550;8.822;2022-11-13T13:11:09;3.93;;;2.03;;
8419;SDS011;4247;48.550;8.822;2022-11-13T13:13:43;2.37;;;2.17;;
8419;SDS011;4247;48.550;8.822;2022-11-13T13:16:19;4.40;;;2.60;;
8419;SDS011;4247;48.550;8.822;2022-11-13T13:18:49;3.13;;;2.67;;
8419;SDS011;4247;48.550;8.822;2022-11-13T13:21:16;4.17;;;2.87;;
8419;SDS011;4247;48.550;8.822;2022-11-13T13:23:47;4.17;;;2.70;;
8419;SDS011;4247;48.550;8.822;2022-11-13T13:26:16;3.00;;;2.77;;
8419;SDS011;4247;48.550;8.822;2022-11-13T13:28:46;4.27;;;2.47;;
8419;SDS011;4247;48.550;8.822;2022-11-13T13:31:24;2.93;;;2.73;;
8419;SDS011;4247;48.550;8.822;2022-11-13T13:34:04;2.60;;;2.40;;
8419;SDS011;4247;48.550;8.822;2022-11-13T13:36:41;3.00;;;2.80;;
8419;SDS011;4247;48.550;8.822;2022-11-13T13:39:17;2.73;;;2.50;;
8419;SDS011;4247;48.550;8.822;2022-11-13T13:41:56;4.20;;;2.93;;
8419;SDS011;4247;48.550;8.822;2022-11-13T13:44:41;3.20;;;2.80;;
8419;SDS011;4247;48.550;8.822;2022-11-13T13:47:22;5.40;;;2.83;;
8419;SDS011;4247;48.550;8.822;2022-11-13T13:49:52;5.47;;;3.40;;
8419;SDS011;4247;48.550;8.822;2022-11-13T13:52:20;3.50;;;2.40;;
8419;SDS011;4247;48.550;8.822;2022-11-13T13:54:54;5.37;;;3.67;;
8419;SDS011;4247;48.550;8.822;2022-11-13T13:57:21;4.20;;;3.40;;
8419;SDS011;4247;48.550;8.822;2022-11-13T13:59:48;3.23;;;3.00;;
8419;SDS011;4247;48.550;8.822;2022-11-13T14:02:16;3.97;;;2.50;;
8419;SDS011;4247;48.550;8.822;2022-11-13T14:04:45;7.07;;;3.27;;
8419;SDS011;4247;48.550;8.822;2022-11-13T14:07:17;5.00;;;3.20;;
8419;SDS011;4247;48.550;8.822;2022-11-13T14:09:46;3.53;;;3.00;;
8419;SDS011;4247;48.550;8.822;2022-11-13T14:12:17;3.57;;;3.23;;
8419;SDS011;4247;48.550;8.822;2022-11-13T14:14:45;3.53;;;3.00;;
8419;SDS011;4247;48.550;8.822;2022-11-13T14:17:20;3.77;;;3.00;;
8419;SDS011;4247;48.550;8.822;2022-11-13T14:19:49;4.27;;;2.97;;
8419;SDS011;4247;48.550;8.822;2022-11-13T14:22:16;4.00;;;3.40;;
8419;SDS011;4247;48.550;8.822;2022-11-13T14:24:47;5.10;;;4.07;;
8419;SDS011;4247;48.550;8.822;2022-11-13T14:27:19;6.13;;;3.57;;
8419;SDS011;4247;48.550;8.822;2022-11-13T14:29:49;3.50;;;3.20;;
8419;SDS011;4247;48.550;8.822;2022-11-13T14:32:21;4.10;;;3.70;;
8419;SDS011;4247;48.550;8.822;2022-11-13T14:34:52;5.40;;;3.97;;
8419;SDS011;4247;48.550;8.822;2022-11-13T14:37:23;6.97;;;3.77;;
8419;SDS011;4247;48.550;8.822;2022-11-13T14:39:54;5.23;;;3.97;;
8419;SDS011;4247;48.550;8.822;2022-11-13T14:42:25;4.30;;;3.60;;
8419;SDS011;4247;48.550;8.822;2022-11-13T14:45:13;5.30;;;3.47;;
8419;SDS011;4247;48.550;8.822;2022-11-13T14:47:42;3.87;;;3.57;;
8419;SDS011;4247;48.550;8.822;2022-11-13T14:50:18;4.00;;;3.60;;
8419;SDS011;4247;48.550;8.822;2022-11-13T14:52:57;3.93;;;3.50;;
8419;SDS011;4247;48.550;8.822;2022-11-13T14:55:27;4.27;;;3.87;;
8419;SDS011;4247;48.550;8.822;2022-11-13T14:57:57;6.77;;;3.27;;
8419;SDS011;4247;48.550;8.822;2022-11-13T15:00:26;7.90;;;4.60;;
8419;SDS011;4247;48.550;8.822;2022-11-13T15:02:55;5.13;;;4.17;;
8419;SDS011;4247;48.550;8.822;2022-11-13T15:05:23;8.27;;;4.93;;
8419;SDS011;4247;48.550;8.822;2022-11-13T15:07:50;4.40;;;3.50;;
8419;SDS011;4247;48.550;8.822;2022-11-13T15:10:21;8.30;;;5.17;;
8419;SDS011;4247;48.550;8.822;2022-11-13T15:12:52;6.03;;;5.30;;
8419;SDS011;4247;48.550;8.822;2022-11-13T15:15:21;5.90;;;4.57;;
8419;SDS011;4247;48.550;8.822;2022-11-13T15:17:52;4.43;;;4.03;;
8419;SDS011;4247;48.550;8.822;2022-11-13T15:20:21;8.87;;;5.27;;
8419;SDS011;4247;48.550;8.822;2022-11-13T15:22:50;5.83;;;4.47;;
8419;SDS011;4247;48.550;8.822;2022-11-13T15:25:18;5.00;;;3.83;;
8419;SDS011;4247;48.550;8.822;2022-11-13T15:27:46;8.03;;;4.67;;
8419;SDS011;4247;48.550;8.822;2022-11-13T15:30:13;11.27;;;6.57;;
8419;SDS011;4247;48.550;8.822;2022-11-13T15:32:42;9.60;;;6.60;;
8419;SDS011;4247;48.550;8.822;2022-11-13T15:35:12;9.83;;;6.27;;
8419;SDS011;4247;48.550;8.822;2022-11-13T15:37:40;10.80;;;6.83;;
8419;SDS011;4247;48.550;8.822;2022-11-13T15:40:09;8.83;;;6.67;;
8419;SDS011;4247;48.550;8.822;2022-11-13T15:42:37;8.83;;;5.73;;
8419;SDS011;4247;48.550;8.822;2022-11-13T15:45:05;8.63;;;6.90;;
8419;SDS011;4247;48.550;8.822;2022-11-13T15:47:33;7.90;;;5.50;;